Météo Nord-Pas-de-Calais   La météo au plus près de chez vous

Station météorologique

Observations météo à Vannes-Sene (56243)

56243001 3 m Dernier relevé à 05:24
15.4°C
Humidité 76 % Vent 4.3 km/h

Journée consultée

Samedi 5 Septembre 2026

Synthèse de la journée

Périodes de référence en UTC

Température maximale

26.2°C

à 18:00

06h 06h

Température minimale

15.4°C

à 05:24

18h 18h

Rafale maximale

15 km/h

à 04:06

00h 00h

Précipitations

0 mm

Cumul quotidien

06h 06h

Ensoleillement

0h 0 mins

Durée quotidienne

00h 00h

Graphiques de la journée

Heure locale Réduire

Données détaillées

Relevés météo

Pas de 6 minutes Afficher les relevés infra-horaires
Relevés météo détaillés à Vannes-Sene pour le Samedi 5 Septembre 2026
Heure Température °C Point de rosée °C Humidité % Vent moyen (raf.), km/h Précipitations mm Température à 10 cm °C Ensoleillement min Rayonnement global W/m²
05:24 15.4 °C 12.5 °C 83 % 4 km/h (6 km/h) 0 mm0 mm 22.3 °C 0 min 0 W/m²
05:18 15.6 °C 12.9 °C 84 % 4 km/h (6 km/h) 0 mm0 mm 22.2 °C 0 min 0 W/m²
05:12 15.7 °C 12.8 °C 83 % 5 km/h (8 km/h) 0 mm0 mm 22.3 °C 0 min 0 W/m²
05:06 15.8 °C 12.7 °C 82 % 5 km/h (8 km/h) 0 mm0 mm 22.3 °C 0 min 0 W/m²
05:00 16 °C 13.1 °C 83 % 5 km/h (7 km/h) 0 mm0 mm 22.3 °C 0 min 0 W/m²
04:54 16 °C 12.9 °C 82 % 4 km/h (7 km/h) 0 mm0 mm 22.3 °C 0 min 0 W/m²
04:48 16.3 °C 12.8 °C 80 % 2 km/h (5 km/h) 0 mm0 mm 22.3 °C 0 min 0 W/m²
04:42 16.6 °C 12.7 °C 78 % 0 km/h (3 km/h) 0 mm0 mm 22.3 °C 0 min 0 W/m²
04:36 16.8 °C 12.9 °C 78 % 0 km/h (5 km/h) 0 mm0 mm 22.3 °C 0 min 0 W/m²
04:30 17 °C 12.7 °C 76 % 3 km/h (5 km/h) 0 mm0 mm 22.4 °C 0 min 0 W/m²
04:24 17.1 °C 12.8 °C 76 % 4 km/h (8 km/h) 0 mm0 mm 22.4 °C 0 min 0 W/m²
04:18 17.2 °C 12.9 °C 76 % 6 km/h (12 km/h) 0 mm0 mm 22.4 °C 0 min 0 W/m²
04:12 17.4 °C 13.1 °C 76 % 8 km/h (15 km/h) 0 mm0 mm 22.4 °C 0 min 0 W/m²
04:06 17.4 °C 13.1 °C 76 % 8 km/h (15 km/h) 0 mm0 mm 22.4 °C 0 min 0 W/m²
04:00 17.4 °C 12.9 °C 75 % 8 km/h (14 km/h) 0 mm0 mm 22.4 °C 0 min 0 W/m²
03:54 17.4 °C 12.9 °C 75 % 7 km/h (12 km/h) 0 mm0 mm 22.4 °C 0 min 0 W/m²
03:48 17.5 °C 13.2 °C 76 % 8 km/h (13 km/h) 0 mm0 mm 22.5 °C 0 min 0 W/m²
03:42 17.6 °C 13.3 °C 76 % 8 km/h (13 km/h) 0 mm0 mm 22.5 °C 0 min 0 W/m²
03:36 17.7 °C 13.6 °C 77 % 8 km/h (12 km/h) 0 mm0 mm 22.5 °C 0 min 0 W/m²
03:30 17.7 °C 13.4 °C 76 % 8 km/h (12 km/h) 0 mm0 mm 22.5 °C 0 min 0 W/m²
03:24 17.7 °C 13.6 °C 77 % 6 km/h (12 km/h) 0 mm0 mm 22.5 °C 0 min 0 W/m²
03:18 17.7 °C 13.6 °C 77 % 6 km/h (11 km/h) 0 mm0 mm 22.5 °C 0 min 0 W/m²
03:12 17.8 °C 13.5 °C 76 % 7 km/h (11 km/h) 0 mm0 mm 22.5 °C 0 min 0 W/m²
03:06 17.8 °C 13.5 °C 76 % 7 km/h (12 km/h) 0 mm0 mm 22.5 °C 0 min 0 W/m²
03:00 17.9 °C 13.6 °C 76 % 7 km/h (12 km/h) 0 mm0 mm 22.5 °C 0 min 0 W/m²
02:54 18 °C 13.7 °C 76 % 6 km/h (10 km/h) 0 mm0 mm 22.5 °C 0 min 0 W/m²
02:48 18.2 °C 13.9 °C 76 % 8 km/h (13 km/h) 0 mm0 mm 22.6 °C 0 min 0 W/m²
02:42 18.3 °C 14 °C 76 % 8 km/h (13 km/h) 0 mm0 mm 22.6 °C 0 min 0 W/m²
02:36 18.3 °C 14 °C 76 % 7 km/h (10 km/h) 0 mm0 mm 22.6 °C 0 min 0 W/m²
02:30 18.5 °C 14 °C 75 % 7 km/h (12 km/h) 0 mm0 mm 22.6 °C 0 min 0 W/m²
02:24 18.6 °C 14.1 °C 75 % 6 km/h (12 km/h) 0 mm0 mm 22.6 °C 0 min 0 W/m²
02:18 18.8 °C 14.3 °C 75 % 5 km/h (9 km/h) 0 mm0 mm 22.6 °C 0 min 0 W/m²
02:12 18.8 °C 14.3 °C 75 % 6 km/h (10 km/h) 0 mm0 mm 22.6 °C 0 min 0 W/m²
02:06 18.9 °C 14.4 °C 75 % 6 km/h (11 km/h) 0 mm0 mm 22.7 °C 0 min 0 W/m²
02:00 19 °C 14.5 °C 75 % 8 km/h (12 km/h) 0 mm0 mm 22.7 °C 0 min 0 W/m²
01:54 19 °C 14.5 °C 75 % 8 km/h (12 km/h) 0 mm0 mm 22.7 °C 0 min 0 W/m²
01:48 19.1 °C 14.6 °C 75 % 8 km/h (12 km/h) 0 mm0 mm 22.7 °C 0 min 0 W/m²
01:42 19.1 °C 14.8 °C 76 % 9 km/h (13 km/h) 0 mm0 mm 22.7 °C 0 min 0 W/m²
01:36 19.1 °C 14.6 °C 75 % 9 km/h (16 km/h) 0 mm0 mm 22.7 °C 0 min 0 W/m²
01:30 19.1 °C 15 °C 77 % 8 km/h (16 km/h) 0 mm0 mm 22.7 °C 0 min 0 W/m²
01:24 19.2 °C 15.1 °C 77 % 7 km/h (12 km/h) 0 mm0 mm 22.7 °C 0 min 0 W/m²
01:18 19.4 °C 15.5 °C 78 % 10 km/h (17 km/h) 0 mm0 mm 22.8 °C 0 min 0 W/m²
01:12 19.4 °C 15.3 °C 77 % 12 km/h (17 km/h) 0 mm0 mm 22.8 °C 0 min 0 W/m²
01:06 19.4 °C 15.5 °C 78 % 10 km/h (17 km/h) 0 mm0 mm 22.8 °C 0 min 0 W/m²
01:00 19.4 °C 15.5 °C 78 % 9 km/h (15 km/h) 0 mm0 mm 22.8 °C 0 min 0 W/m²
00:54 19.4 °C 15.7 °C 79 % 9 km/h (15 km/h) 0 mm0 mm 22.8 °C 0 min 0 W/m²
00:48 19.4 °C 15.7 °C 79 % 7 km/h (12 km/h) 0 mm0 mm 22.8 °C 0 min 0 W/m²
00:42 19.5 °C 16 °C 80 % 7 km/h (12 km/h) 0 mm0 mm 22.8 °C 0 min 0 W/m²
00:36 19.4 °C 15.9 °C 80 % 8 km/h (12 km/h) 0 mm0 mm 22.8 °C 0 min 0 W/m²
00:30 19.4 °C 15.9 °C 80 % 8 km/h (13 km/h) 0 mm0 mm 22.9 °C 0 min 0 W/m²
00:24 19.5 °C 16.2 °C 81 % 9 km/h (14 km/h) 0 mm0 mm 22.9 °C 0 min 0 W/m²
00:18 19.5 °C 16.2 °C 81 % 10 km/h (15 km/h) 0 mm0 mm 22.9 °C 0 min 0 W/m²
00:12 19.4 °C 15.9 °C 80 % 11 km/h (16 km/h) 0 mm0 mm 22.9 °C 0 min 0 W/m²
00:06 19.5 °C 16.2 °C 81 % 12 km/h (18 km/h) 0 mm0 mm 22.9 °C 0 min 0 W/m²
00:00 19.5 °C 16.2 °C 81 % 13 km/h (20 km/h) 0 mm0 mm 22.9 °C 0 min 0 W/m²

Données via Météo-France

Relevés météo à Vannes-Sene

Cette page rassemble les observations de la station de Vannes-Sene : température, humidité, vent, précipitations et pression atmosphérique. Les graphiques facilitent le suivi de la journée, tandis que le tableau donne accès aux mesures horaires et infra-horaires disponibles.

Pour replacer ces mesures dans leur contexte, consultez la climatologie de Vannes-Sene ainsi que ses normales et records. Retrouvez aussi la carte des observations météo en temps réel.